Time;durP1;ratioP1;P1;durP2;ratioP2;P2;SDS_P1;SDS_P2;PMS_P1;PMS_P2;Temp;Humidity;BMP_temperature;BMP_pressure;BME280_temperature;BME280_humidity;BME280_pressure;Samples;Min_cycle;Max_cycle;Signal;HPM_P1;HPM_P2
2023/02/13 00:00:02;;;;;;;15.37;13.87;;;;;;;0.55;100.00;99026.50;5046353;28;20206;-66
2023/02/13 00:02:29;;;;;;;15.17;13.60;;;;;;;0.58;100.00;99021.13;5021347;28;20448;-64
2023/02/13 00:04:57;;;;;;;15.07;13.53;;;;;;;0.60;100.00;99016.66;5065058;28;20448;-65
2023/02/13 00:07:25;;;;;;;16.47;14.77;;;;;;;0.61;100.00;99015.75;5061676;28;20212;-63
2023/02/13 00:09:52;;;;;;;14.80;13.40;;;;;;;0.66;100.00;99015.53;5065893;28;20409;-63
2023/02/13 00:12:21;;;;;;;15.80;14.10;;;;;;;0.57;100.00;99024.66;5064688;28;20229;-64
2023/02/13 00:14:49;;;;;;;14.80;13.30;;;;;;;0.62;100.00;99020.03;5062397;28;20213;-65
2023/02/13 00:17:16;;;;;;;15.67;14.07;;;;;;;0.74;100.00;99017.75;5002093;28;20218;-65
2023/02/13 00:19:44;;;;;;;15.77;14.17;;;;;;;0.67;100.00;99015.44;5057920;28;20410;-66
2023/02/13 00:22:11;;;;;;;14.67;13.20;;;;;;;0.62;100.00;99016.59;5062360;28;20246;-63
2023/02/13 00:24:39;;;;;;;15.80;14.20;;;;;;;0.67;100.00;99019.84;5065702;28;20216;-65
2023/02/13 00:27:06;;;;;;;15.37;13.93;;;;;;;0.74;100.00;99017.75;5067755;28;20285;-64
2023/02/13 00:29:35;;;;;;;16.63;14.90;;;;;;;0.70;100.00;99022.28;5069744;28;20198;-63
2023/02/13 00:32:03;;;;;;;15.97;14.37;;;;;;;0.76;100.00;99019.38;5048917;28;20245;-65
2023/02/13 00:34:31;;;;;;;17.37;14.47;;;;;;;0.81;100.00;99016.53;5027282;28;20635;-63
2023/02/13 00:36:58;;;;;;;15.17;13.67;;;;;;;0.83;100.00;99023.34;5063758;28;20633;-65
2023/02/13 00:39:26;;;;;;;16.23;14.63;;;;;;;0.84;100.00;99022.44;5067423;28;20506;-63
2023/02/13 00:41:53;;;;;;;15.63;14.10;;;;;;;0.89;100.00;99021.34;5068732;28;20244;-65
2023/02/13 00:44:21;;;;;;;16.50;14.73;;;;;;;0.80;100.00;99017.47;5050541;28;20672;-63
2023/02/13 00:46:50;;;;;;;15.03;13.53;;;;;;;0.90;100.00;99017.81;5067124;28;20306;-65
2023/02/13 00:49:17;;;;;;;16.00;14.30;;;;;;;0.82;100.00;99006.00;5004076;28;20670;-63
2023/02/13 00:51:45;;;;;;;15.13;13.60;;;;;;;0.94;100.00;99015.00;5064681;28;20215;-63
2023/02/13 00:54:13;;;;;;;15.37;13.57;;;;;;;0.88;100.00;99012.69;5064305;28;20209;-64
2023/02/13 00:56:40;;;;;;;14.73;13.33;;;;;;;0.81;100.00;99022.59;5056613;28;20402;-63
2023/02/13 00:59:08;;;;;;;15.00;13.30;;;;;;;0.79;100.00;99014.00;5068017;28;20214;-64
2023/02/13 01:01:35;;;;;;;14.30;12.87;;;;;;;0.68;100.00;99018.91;5067474;28;20248;-65
2023/02/13 01:04:04;;;;;;;14.77;13.30;;;;;;;0.65;100.00;99016.47;5046528;28;20275;-65
2023/02/13 01:06:32;;;;;;;15.20;13.67;;;;;;;0.68;100.00;99005.88;5018790;28;20244;-64
2023/02/13 01:09:00;;;;;;;15.27;13.67;;;;;;;0.63;100.00;99013.91;5069696;28;20740;-65
2023/02/13 01:11:27;;;;;;;17.00;14.47;;;;;;;0.54;100.00;99004.75;5067122;28;20703;-66
2023/02/13 01:13:55;;;;;;;15.30;13.27;;;;;;;0.65;100.00;99021.69;5070773;28;20212;-63
2023/02/13 01:16:22;;;;;;;16.10;14.13;;;;;;;0.56;100.00;99021.19;5065457;28;20239;-64
2023/02/13 01:18:50;;;;;;;16.43;14.73;;;;;;;0.49;100.00;99021.56;5053841;28;20275;-65
2023/02/13 01:21:22;;;;;;;14.63;13.10;;;;;;;0.46;100.00;99009.53;5020112;28;20225;-63
2023/02/13 01:23:50;;;;;;;17.20;15.27;;;;;;;0.52;100.00;99016.22;5066217;28;20202;-66
2023/02/13 01:26:19;;;;;;;18.47;15.50;;;;;;;0.46;100.00;99006.91;5065599;28;20258;-65
2023/02/13 01:28:47;;;;;;;17.40;15.60;;;;;;;0.46;100.00;99012.13;5063192;28;21034;-64
2023/02/13 01:31:15;;;;;;;18.23;16.33;;;;;;;0.43;100.00;99010.53;5065845;28;20732;-64
2023/02/13 01:33:43;;;;;;;16.37;14.40;;;;;;;0.40;100.00;99009.81;5045240;28;20295;-65
2023/02/13 01:36:13;;;;;;;18.33;15.07;;;;;;;0.32;100.00;99007.56;5021891;28;20213;-64
2023/02/13 01:38:42;;;;;;;16.20;14.47;;;;;;;0.27;100.00;99012.16;5067805;28;20504;-64
2023/02/13 01:41:10;;;;;;;15.50;13.90;;;;;;;0.27;100.00;99014.78;5067757;28;20214;-64
2023/02/13 01:43:49;;;;;;;14.13;12.67;;;;;;;0.33;100.00;99009.25;5067971;28;20203;-66
2023/02/13 01:46:22;;;;;;;15.83;14.00;;;;;;;0.33;100.00;99003.22;5064143;28;20196;-65
2023/02/13 01:48:51;;;;;;;14.60;13.13;;;;;;;0.33;100.00;99001.44;5051965;28;20221;-65
2023/02/13 01:51:21;;;;;;;16.03;14.20;;;;;;;0.33;100.00;99004.03;5018155;28;20242;-64
2023/02/13 01:53:54;;;;;;;17.00;13.57;;;;;;;0.36;100.00;99003.91;5060645;28;20327;-64
2023/02/13 01:56:24;;;;;;;16.43;13.97;;;;;;;0.33;100.00;98998.84;5051208;28;20206;-64
2023/02/13 01:58:54;;;;;;;18.60;13.80;;;;;;;0.35;100.00;98990.94;5050978;28;20641;-67
2023/02/13 02:01:23;;;;;;;18.63;15.33;;;;;;;0.38;100.00;98996.88;5048937;28;20224;-64
2023/02/13 02:03:54;;;;;;;17.83;14.87;;;;;;;0.33;100.00;99005.81;5032614;28;20203;-64
2023/02/13 02:06:26;;;;;;;21.17;17.07;;;;;;;0.40;100.00;99015.03;5007767;28;20207;-65
2023/02/13 02:08:57;;;;;;;25.67;19.80;;;;;;;0.27;100.00;99012.16;5047195;28;20198;-64
2023/02/13 02:11:32;;;;;;;26.57;20.03;;;;;;;0.32;100.00;99014.56;5054747;28;20591;-65
2023/02/13 02:14:01;;;;;;;29.10;21.50;;;;;;;0.37;100.00;99002.16;5048467;28;20483;-65
2023/02/13 02:16:29;;;;;;;24.47;20.33;;;;;;;0.41;100.00;99003.69;5053874;28;20194;-65
2023/02/13 02:18:57;;;;;;;27.63;22.20;;;;;;;0.30;100.00;99003.38;5044497;28;20227;-64
2023/02/13 02:22:03;;;;;;;27.97;22.17;;;;;;;0.30;100.00;99001.59;5029107;28;20249;-66
2023/02/13 02:25:08;;;;;;;36.63;23.90;;;;;;;0.45;100.00;99013.03;5044805;28;20206;-65
2023/02/13 02:27:45;;;;;;;34.67;23.17;;;;;;;0.40;100.00;99015.03;5053414;28;20201;-65
2023/02/13 02:30:52;;;;;;;35.20;23.83;;;;;;;0.42;100.00;98998.41;5049157;28;20209;-65
2023/02/13 02:33:31;;;;;;;34.77;22.50;;;;;;;0.35;100.00;99001.38;5032582;28;20233;-65
2023/02/13 02:36:10;;;;;;;36.43;23.90;;;;;;;0.29;100.00;99002.50;5033451;28;20963;-66
2023/02/13 02:38:48;;;;;;;35.80;24.43;;;;;;;0.39;100.00;98998.56;5001806;28;20671;-64
2023/02/13 02:44:15;;;;;;;35.63;24.90;;;;;;;0.40;100.00;98991.56;5050895;28;20206;-64
2023/02/13 02:52:27;;;;;;;36.17;24.97;;;;;;;0.36;100.00;98990.03;4981194;28;20447;-66
2023/02/13 02:55:08;;;;;;;35.37;24.00;;;;;;;0.38;100.00;98985.59;5048611;28;20791;-65
2023/02/13 03:06:11;;;;;;;39.07;25.50;;;;;;;0.31;100.00;98992.03;5060134;28;20197;-65
2023/02/13 03:14:11;;;;;;;35.33;24.17;;;;;;;0.17;100.00;98988.28;5074520;28;20204;-65
2023/02/13 03:22:31;;;;;;;34.80;25.00;;;;;;;-0.05;100.00;98991.09;5042384;28;20314;-67
2023/02/13 03:25:07;;;;;;;31.20;24.47;;;;;;;-0.02;100.00;98988.31;5020817;28;20210;-63
2023/02/13 03:30:34;;;;;;;38.03;25.80;;;;;;;-0.03;100.00;98994.47;5073491;28;20288;-66
2023/02/13 03:33:12;;;;;;;55.73;28.07;;;;;;;-0.05;100.00;98989.34;5069443;28;20604;-63
2023/02/13 03:38:33;;;;;;;44.30;26.90;;;;;;;-0.06;100.00;98995.47;5016179;28;25312;-66
2023/02/13 03:41:19;;;;;;;43.37;27.33;;;;;;;0.02;100.00;99000.31;5069744;28;20231;-63
2023/02/13 03:44:05;;;;;;;39.93;27.30;;;;;;;-0.04;100.00;99001.44;5072311;28;20193;-65
2023/02/13 03:46:35;;;;;;;38.80;25.77;;;;;;;0.01;100.00;98998.63;5060486;28;20524;-66
2023/02/13 03:51:53;;;;;;;51.43;26.83;;;;;;;0.04;100.00;99006.31;5067667;28;20224;-65
2023/02/13 03:59:55;;;;;;;40.23;26.90;;;;;;;-0.17;100.00;98992.53;5067658;28;20233;-63
2023/02/13 04:02:26;;;;;;;38.40;27.17;;;;;;;-0.03;100.00;99013.56;5062947;28;20866;-65
2023/02/13 04:05:00;;;;;;;54.50;26.57;;;;;;;-0.06;100.00;98998.06;5070462;28;20205;-64
2023/02/13 04:07:31;;;;;;;41.37;26.27;;;;;;;-0.08;100.00;99002.50;5057956;28;20419;-66
2023/02/13 04:10:03;;;;;;;36.20;25.53;;;;;;;-0.16;100.00;98991.59;5036415;28;20206;-64
2023/02/13 04:12:41;;;;;;;34.50;24.27;;;;;;;0.01;100.00;99003.00;5039673;28;20213;-66
2023/02/13 04:15:12;;;;;;;39.33;24.70;;;;;;;-0.09;100.00;99000.81;5062695;28;20207;-64
2023/02/13 04:17:43;;;;;;;38.77;24.03;;;;;;;-0.13;100.00;99001.03;5065730;28;20234;-65
2023/02/13 04:20:11;;;;;;;37.57;24.47;;;;;;;-0.05;100.00;99004.97;5067999;28;20524;-64
2023/02/13 04:22:42;;;;;;;29.77;24.33;;;;;;;-0.08;100.00;98992.09;5063815;28;20227;-66
2023/02/13 04:25:13;;;;;;;33.73;23.43;;;;;;;-0.07;100.00;98996.38;5042193;28;20206;-64
2023/02/13 04:27:40;;;;;;;37.37;24.63;;;;;;;-0.18;100.00;98990.84;5025309;28;20206;-65
2023/02/13 04:30:09;;;;;;;38.20;24.83;;;;;;;-0.30;100.00;98995.69;5059760;28;20205;-63
2023/02/13 04:32:37;;;;;;;38.83;24.70;;;;;;;-0.34;100.00;98991.53;5070474;28;20627;-65
2023/02/13 04:35:05;;;;;;;39.73;25.20;;;;;;;-0.34;100.00;98996.72;5069957;28;20685;-63
2023/02/13 04:37:32;;;;;;;42.07;26.03;;;;;;;-0.36;100.00;98993.34;5060065;28;20301;-65
2023/02/13 04:40:00;;;;;;;36.63;23.77;;;;;;;-0.33;100.00;98990.63;5056752;28;20223;-63
2023/02/13 04:42:29;;;;;;;39.10;24.57;;;;;;;-0.29;100.00;98980.91;5021578;28;20316;-65
2023/02/13 04:44:56;;;;;;;32.87;23.30;;;;;;;-0.35;100.00;98987.22;5064198;28;20215;-63
2023/02/13 04:47:24;;;;;;;31.57;24.10;;;;;;;-0.31;100.00;98983.56;5064857;28;20202;-65
2023/02/13 04:49:52;;;;;;;39.63;24.40;;;;;;;-0.35;100.00;98984.63;5067877;28;20202;-64
2023/02/13 04:52:19;;;;;;;40.73;25.27;;;;;;;-0.33;100.00;98984.56;5063131;28;20221;-65
2023/02/13 04:54:47;;;;;;;36.60;22.77;;;;;;;-0.26;100.00;98985.97;5073635;28;20202;-66
2023/02/13 04:57:14;;;;;;;37.40;22.90;;;;;;;-0.22;100.00;98990.13;5011899;28;20214;-66
2023/02/13 04:59:43;;;;;;;32.80;23.77;;;;;;;-0.15;100.00;98985.47;5070686;28;20782;-66
2023/02/13 05:02:11;;;;;;;33.73;24.27;;;;;;;-0.05;100.00;98984.13;5060378;28;20229;-66
2023/02/13 05:04:38;;;;;;;35.60;24.20;;;;;;;-0.05;100.00;98986.72;5070871;28;20205;-66
2023/02/13 05:07:06;;;;;;;35.87;24.63;;;;;;;-0.17;100.00;98989.91;5061869;28;20222;-65
2023/02/13 05:09:33;;;;;;;39.80;25.23;;;;;;;-0.09;100.00;98995.59;5050769;28;20217;-67
2023/02/13 05:12:01;;;;;;;30.10;22.13;;;;;;;-0.08;100.00;98983.41;5052072;28;20713;-65
2023/02/13 05:14:29;;;;;;;38.33;22.80;;;;;;;-0.23;100.00;98977.16;5033907;28;20203;-65
2023/02/13 05:16:58;;;;;;;35.13;23.00;;;;;;;-0.15;100.00;98988.91;5058517;28;20196;-65
2023/02/13 05:19:25;;;;;;;34.37;23.47;;;;;;;-0.16;100.00;98986.41;5064368;28;20198;-67
2023/02/13 05:24:38;;;;;;;28.77;21.63;;;;;;;-0.15;100.00;98985.47;5070370;28;20194;-66
2023/02/13 05:27:06;;;;;;;33.30;23.07;;;;;;;-0.16;100.00;98986.41;5054060;28;20194;-65
2023/02/13 05:29:33;;;;;;;30.93;21.40;;;;;;;-0.08;100.00;98988.63;5034952;28;20305;-67
2023/02/13 05:32:02;;;;;;;31.97;23.00;;;;;;;-0.04;100.00;98992.78;5068497;28;20216;-65
2023/02/13 05:34:30;;;;;;;36.77;23.37;;;;;;;-0.07;100.00;98991.16;5070935;28;20195;-66
2023/02/13 05:36:58;;;;;;;31.43;22.93;;;;;;;-0.20;100.00;98990.03;5067472;28;20260;-65
2023/02/13 05:39:25;;;;;;;31.00;23.13;;;;;;;-0.10;100.00;99000.88;5066179;28;20186;-66
2023/02/13 05:41:53;;;;;;;36.50;22.87;;;;;;;-0.19;100.00;99007.34;5072740;28;20233;-64
2023/02/13 05:44:20;;;;;;;31.43;23.00;;;;;;;-0.10;100.00;99003.47;5019701;28;22346;-65
2023/02/13 05:46:48;;;;;;;34.70;22.83;;;;;;;-0.02;100.00;99002.22;5067151;28;20206;-66
2023/02/13 05:49:17;;;;;;;35.20;23.77;;;;;;;0.01;100.00;99013.41;5066804;28;20285;-67
2023/02/13 05:51:45;;;;;;;35.57;24.13;;;;;;;0.07;100.00;99010.50;5067871;28;20929;-66
2023/02/13 05:54:13;;;;;;;34.13;22.60;;;;;;;0.12;100.00;99013.75;5067275;28;20961;-66
2023/02/13 05:56:40;;;;;;;35.90;24.30;;;;;;;0.11;100.00;99012.91;5071013;28;20220;-67
2023/02/13 05:59:08;;;;;;;36.87;24.73;;;;;;;0.06;100.00;99008.81;5050026;28;20198;-64
2023/02/13 06:01:36;;;;;;;32.73;23.80;;;;;;;0.07;100.00;99013.97;5043402;28;20227;-67
2023/02/13 06:04:04;;;;;;;39.07;24.20;;;;;;;0.04;100.00;99008.06;5070610;28;20288;-64
2023/02/13 06:06:33;;;;;;;35.50;23.03;;;;;;;0.06;100.00;99014.91;5069544;28;20628;-66
2023/02/13 06:09:00;;;;;;;34.13;22.17;;;;;;;0.13;100.00;99018.03;5064325;28;20191;-64
2023/02/13 06:11:28;;;;;;;30.70;22.73;;;;;;;0.07;100.00;99020.94;5066206;28;20238;-64
2023/02/13 06:13:56;;;;;;;30.27;21.60;;;;;;;0.07;100.00;99026.16;5064675;28;20195;-65
2023/02/13 06:16:23;;;;;;;32.03;22.10;;;;;;;0.04;100.00;99027.16;5024733;28;20367;-67
2023/02/13 06:18:51;;;;;;;27.43;21.67;;;;;;;0.17;100.00;99032.63;5074967;28;20277;-65
2023/02/13 06:21:19;;;;;;;33.60;24.90;;;;;;;0.18;100.00;99041.28;5068530;28;20313;-65
2023/02/13 06:23:48;;;;;;;29.77;21.73;;;;;;;0.18;100.00;99034.31;5071619;28;20198;-65
2023/02/13 06:26:15;;;;;;;35.50;22.60;;;;;;;0.15;100.00;99034.44;5068421;28;20204;-66
2023/02/13 06:28:43;;;;;;;33.40;21.83;;;;;;;0.24;100.00;99041.00;5072391;28;20199;-65
2023/02/13 06:31:10;;;;;;;35.87;24.27;;;;;;;0.24;100.00;99041.84;5017542;28;20761;-63
2023/02/13 06:33:38;;;;;;;35.03;22.53;;;;;;;0.21;100.00;99038.53;5067799;28;20204;-65
2023/02/13 06:36:07;;;;;;;27.97;21.90;;;;;;;0.25;100.00;99040.94;5064873;28;21178;-64
2023/02/13 06:38:34;;;;;;;30.27;23.17;;;;;;;0.33;100.00;99039.72;5071297;28;20202;-66
2023/02/13 06:41:04;;;;;;;35.43;22.03;;;;;;;0.32;100.00;99040.66;5069898;28;20194;-64
2023/02/13 06:43:31;;;;;;;31.07;21.87;;;;;;;0.25;100.00;99045.31;5073031;28;20230;-66
2023/02/13 06:45:59;;;;;;;29.77;20.60;;;;;;;0.23;100.00;99034.09;5062632;28;20206;-64
2023/02/13 06:48:26;;;;;;;34.13;22.60;;;;;;;0.30;100.00;99052.91;5027473;28;20206;-67
2023/02/13 06:50:54;;;;;;;33.27;21.07;;;;;;;0.35;100.00;99045.72;5069290;28;20205;-65
2023/02/13 06:53:23;;;;;;;25.57;19.97;;;;;;;0.38;100.00;99051.63;5065025;28;20221;-66
2023/02/13 06:55:52;;;;;;;26.03;19.37;;;;;;;0.37;100.00;99051.69;5075141;28;20206;-64
2023/02/13 06:58:23;;;;;;;24.20;20.70;;;;;;;0.40;100.00;99054.16;5071845;28;20213;-66
2023/02/13 07:00:50;;;;;;;27.33;22.30;;;;;;;0.42;100.00;99044.50;5068364;28;20217;-65
2023/02/13 07:03:18;;;;;;;29.50;21.63;;;;;;;0.55;100.00;99056.00;5007195;28;20681;-66
2023/02/13 07:05:46;;;;;;;30.17;23.50;;;;;;;0.48;100.00;99059.84;5075253;28;20209;-66
2023/02/13 07:08:13;;;;;;;28.87;21.77;;;;;;;0.54;100.00;99058.72;5073210;28;20937;-66
2023/02/13 07:10:42;;;;;;;30.00;21.20;;;;;;;0.51;100.00;99064.91;5075448;28;20208;-65
2023/02/13 07:13:10;;;;;;;31.70;21.80;;;;;;;0.57;100.00;99063.78;5058750;28;20214;-64
2023/02/13 07:15:39;;;;;;;29.43;22.80;;;;;;;0.55;100.00;99058.63;5066325;28;20206;-66
2023/02/13 07:18:07;;;;;;;29.63;22.10;;;;;;;0.63;100.00;99068.69;5033896;28;20657;-64
2023/02/13 07:20:35;;;;;;;33.80;23.93;;;;;;;0.67;100.00;99074.63;5078320;28;20206;-66
2023/02/13 07:23:04;;;;;;;34.73;25.53;;;;;;;0.68;100.00;99071.91;5070750;28;20230;-65
2023/02/13 07:25:32;;;;;;;30.97;23.43;;;;;;;0.70;100.00;99064.03;5067881;28;20206;-66
2023/02/13 07:28:04;;;;;;;28.10;20.03;;;;;;;0.70;100.00;99064.03;5072008;28;20641;-65
2023/02/13 07:30:32;;;;;;;24.23;19.37;;;;;;;0.80;100.00;99064.44;5071782;28;20211;-65
2023/02/13 07:33:03;;;;;;;21.53;17.53;;;;;;;0.86;100.00;99057.13;5053021;28;20220;-65
2023/02/13 07:35:31;;;;;;;22.63;17.60;;;;;;;0.91;100.00;99069.09;5073568;28;20202;-66
2023/02/13 07:37:59;;;;;;;25.33;19.07;;;;;;;0.99;100.00;99061.75;5079981;28;20201;-64
2023/02/13 07:40:27;;;;;;;23.20;18.50;;;;;;;1.06;100.00;99057.03;5081743;28;20270;-66
2023/02/13 07:42:55;;;;;;;23.17;17.97;;;;;;;1.06;100.00;99060.53;5081118;28;20225;-64
2023/02/13 07:45:23;;;;;;;23.00;18.30;;;;;;;1.11;100.00;99061.13;5075649;28;20960;-66
2023/02/13 07:47:50;;;;;;;17.40;15.43;;;;;;;1.13;100.00;99063.66;5073446;28;20230;-64
2023/02/13 07:50:19;;;;;;;19.57;15.57;;;;;;;1.13;100.00;99061.88;5038133;28;20838;-66
2023/02/13 07:52:53;;;;;;;15.73;13.53;;;;;;;1.18;100.00;99061.66;5067970;28;20214;-66
2023/02/13 07:55:20;;;;;;;18.07;14.83;;;;;;;1.23;100.00;99066.63;5073495;28;20206;-66
2023/02/13 07:57:48;;;;;;;18.73;15.57;;;;;;;1.14;100.00;99066.19;5046427;28;20195;-66
2023/02/13 08:00:17;;;;;;;17.70;14.87;;;;;;;1.24;100.00;99063.97;5038828;28;20210;-67
2023/02/13 08:02:45;;;;;;;23.33;15.87;;;;;;;1.33;100.00;99057.44;5050002;28;20605;-66
2023/02/13 08:05:13;;;;;;;21.20;16.40;;;;;;;1.37;100.00;99058.97;5013063;28;20631;-65
2023/02/13 08:07:42;;;;;;;19.37;15.43;;;;;;;1.44;100.00;99054.25;5039425;28;20802;-67
2023/02/13 08:12:58;;;;;;;22.43;17.33;;;;;;;1.46;100.00;99059.41;5046533;28;20215;-65
2023/02/13 08:15:26;;;;;;;22.30;16.77;;;;;;;1.51;100.00;99054.78;5045857;28;20225;-64
2023/02/13 08:17:53;;;;;;;18.73;15.23;;;;;;;1.54;100.00;99054.59;5046846;28;20464;-65
2023/02/13 08:20:21;;;;;;;17.87;15.43;;;;;;;1.61;100.00;99050.75;5000413;28;21226;-66
2023/02/13 08:22:50;;;;;;;20.57;16.67;;;;;;;1.70;100.00;99057.25;5040542;28;20230;-67
2023/02/13 08:25:18;;;;;;;21.10;16.70;;;;;;;1.80;100.00;99053.22;5045901;28;22025;-66
2023/02/13 08:27:46;;;;;;;22.30;17.63;;;;;;;1.82;100.00;99048.75;5049739;28;20202;-66
2023/02/13 08:30:14;;;;;;;20.30;17.13;;;;;;;1.78;100.00;99049.03;5037243;28;20693;-65
2023/02/13 08:32:42;;;;;;;20.00;16.67;;;;;;;1.74;100.00;99053.56;5036052;28;20219;-66
2023/02/13 08:35:21;;;;;;;18.83;16.83;;;;;;;1.78;100.00;99056.88;5039540;28;20993;-66
2023/02/13 08:37:50;;;;;;;17.60;14.87;;;;;;;1.73;100.00;99054.47;4986955;28;20215;-65
2023/02/13 08:40:18;;;;;;;18.83;15.50;;;;;;;1.88;100.00;99058.03;5040509;28;20207;-67
2023/02/13 08:42:45;;;;;;;16.23;14.53;;;;;;;1.77;100.00;99061.22;5033786;28;20234;-65
2023/02/13 08:45:13;;;;;;;18.43;14.53;;;;;;;1.86;100.00;99058.13;5049743;28;20214;-66
2023/02/13 08:47:40;;;;;;;15.00;13.13;;;;;;;1.84;100.00;99066.97;5049162;28;20207;-65
2023/02/13 08:50:09;;;;;;;16.40;14.07;;;;;;;1.79;100.00;99066.38;5046264;28;20207;-67
2023/02/13 08:52:36;;;;;;;18.40;14.20;;;;;;;1.73;100.00;99065.78;4997386;28;20223;-65
2023/02/13 08:55:06;;;;;;;19.00;15.50;;;;;;;1.81;100.00;99064.53;5044699;28;20218;-67
2023/02/13 08:57:33;;;;;;;17.37;14.03;;;;;;;1.81;100.00;99067.16;5043423;28;20206;-66
2023/02/13 09:00:01;;;;;;;17.20;14.53;;;;;;;2.02;100.00;99065.16;5039693;28;20214;-66
2023/02/13 09:02:29;;;;;;;15.13;13.27;;;;;;;1.99;100.00;99060.91;5046991;28;20232;-66
2023/02/13 09:04:56;;;;;;;15.03;13.53;;;;;;;2.03;100.00;99059.81;5031792;28;20219;-68
2023/02/13 09:07:24;;;;;;;14.20;12.87;;;;;;;2.08;100.00;99058.72;5008459;28;21771;-67
2023/02/13 09:09:51;;;;;;;14.10;12.53;;;;;;;2.17;100.00;99051.22;5055104;28;20198;-66
2023/02/13 09:12:20;;;;;;;16.73;14.90;;;;;;;2.19;100.00;99058.13;5048115;28;20894;-68
2023/02/13 09:14:48;;;;;;;14.67;13.10;;;;;;;2.23;100.00;99049.19;5052143;28;20589;-67
2023/02/13 09:17:17;;;;;;;14.10;12.60;;;;;;;2.27;100.00;99062.03;5045713;28;20203;-66
2023/02/13 09:19:46;;;;;;;15.83;12.57;;;;;;;2.35;100.00;99055.53;5050259;28;20395;-66
2023/02/13 09:22:15;;;;;;;13.73;12.20;;;;;;;2.49;100.00;99052.13;5011232;28;20230;-65
2023/02/13 09:24:43;;;;;;;13.67;12.37;;;;;;;2.47;100.00;99044.38;5045318;28;20544;-65
2023/02/13 09:27:11;;;;;;;14.13;12.63;;;;;;;2.78;100.00;99052.25;5044184;28;20196;-64
2023/02/13 09:29:41;;;;;;;15.57;13.23;;;;;;;2.72;100.00;99049.06;5052267;28;20195;-66
2023/02/13 09:32:08;;;;;;;16.97;13.90;;;;;;;2.91;100.00;99053.22;5048330;28;20219;-66
2023/02/13 09:34:36;;;;;;;13.17;11.97;;;;;;;2.83;100.00;99052.84;5050081;28;20725;-64
2023/02/13 09:37:03;;;;;;;13.83;12.20;;;;;;;2.79;100.00;99044.28;5044118;28;20637;-64
2023/02/13 09:39:31;;;;;;;14.80;11.63;;;;;;;2.64;100.00;99053.03;5003593;28;20424;-65
2023/02/13 09:42:00;;;;;;;12.77;11.50;;;;;;;2.69;100.00;99051.00;5049046;28;20730;-67
2023/02/13 09:44:34;;;;;;;13.70;11.53;;;;;;;2.94;100.00;99054.84;5048919;28;20835;-64
2023/02/13 09:47:14;;;;;;;12.80;11.17;;;;;;;2.81;100.00;99052.91;5047003;28;20540;-66
2023/02/13 09:49:44;;;;;;;12.87;11.57;;;;;;;2.91;100.00;99055.00;5043039;28;20199;-66
2023/02/13 09:52:12;;;;;;;12.43;11.10;;;;;;;3.10;100.00;99050.38;5052666;28;20229;-66
2023/02/13 09:54:39;;;;;;;14.13;11.70;;;;;;;3.31;100.00;99050.88;5001269;28;20619;-66
2023/02/13 09:57:12;;;;;;;13.77;12.27;;;;;;;3.25;100.00;99046.00;5069849;28;20218;-65
2023/02/13 09:59:48;;;;;;;15.10;12.83;;;;;;;3.10;100.00;99050.38;5064554;28;20204;-63
2023/02/13 10:02:29;;;;;;;13.70;12.23;;;;;;;3.30;100.00;99046.56;5063958;28;20226;-65
2023/02/13 10:05:03;;;;;;;15.20;13.63;;;;;;;3.44;100.00;99058.84;5070286;28;20364;-66
2023/02/13 10:07:37;;;;;;;14.90;13.37;;;;;;;3.52;100.00;99061.00;5059549;28;20213;-64
2023/02/13 10:10:13;;;;;;;15.10;13.67;;;;;;;3.22;100.00;99067.16;5032000;28;20589;-66
2023/02/13 10:12:52;;;;;;;15.43;13.83;;;;;;;3.29;100.00;99059.78;5065134;28;20748;-65
2023/02/13 10:15:24;;;;;;;16.67;14.90;;;;;;;3.39;100.00;99067.91;5066812;28;20198;-64
2023/02/13 10:17:57;;;;;;;15.80;14.10;;;;;;;3.63;100.00;99055.13;5065061;28;20380;-65
2023/02/13 10:20:28;;;;;;;16.73;15.00;;;;;;;3.75;100.00;99061.38;5066692;28;20202;-63
2023/02/13 10:23:00;;;;;;;17.10;15.07;;;;;;;3.73;100.00;99044.88;5041294;28;20234;-66
2023/02/13 10:25:30;;;;;;;17.97;16.00;;;;;;;3.91;100.00;99054.25;5032313;28;21518;-64
2023/02/13 10:28:01;;;;;;;17.03;15.33;;;;;;;3.98;100.00;99049.47;5068102;28;20207;-64
2023/02/13 10:30:32;;;;;;;18.23;15.60;;;;;;;4.14;100.00;99059.00;5054081;28;20289;-65
2023/02/13 10:35:51;;;;;;;18.40;16.43;;;;;;;4.09;100.00;99045.34;5072524;28;20275;-66
2023/02/13 10:38:20;;;;;;;16.37;14.80;;;;;;;4.57;100.00;99050.16;5063242;28;20289;-66
2023/02/13 10:41:00;;;;;;;18.07;16.10;;;;;;;4.46;100.00;99043.81;5024213;28;20912;-64
2023/02/13 10:43:30;;;;;;;16.73;14.93;;;;;;;4.35;100.00;99047.13;5063986;28;20227;-63
2023/02/13 10:46:06;;;;;;;18.87;15.80;;;;;;;4.57;100.00;99032.63;5041215;28;20921;-64
2023/02/13 10:48:47;;;;;;;17.40;15.23;;;;;;;4.66;100.00;99038.19;5068958;28;20205;-64
2023/02/13 10:51:19;;;;;;;17.13;15.40;;;;;;;4.55;100.00;99042.38;5068674;28;20741;-65
2023/02/13 10:53:53;;;;;;;16.57;14.90;;;;;;;4.81;100.00;99038.97;5066135;28;20214;-66
2023/02/13 10:56:27;;;;;;;17.60;15.80;;;;;;;4.78;100.00;99024.28;5067431;28;20213;-64
2023/02/13 10:59:05;;;;;;;17.70;15.90;;;;;;;4.90;100.00;99030.47;5042189;28;20278;-66
2023/02/13 11:01:37;;;;;;;17.27;15.47;;;;;;;5.13;100.00;99026.34;5046817;28;20390;-65
2023/02/13 11:04:08;;;;;;;16.57;14.97;;;;;;;4.74;100.00;99020.19;5072498;28;20220;-63
2023/02/13 11:06:37;;;;;;;17.33;15.63;;;;;;;4.78;100.00;99029.53;5059148;28;20206;-64
2023/02/13 11:09:07;;;;;;;16.60;14.90;;;;;;;4.57;100.00;99039.66;5075603;28;20206;-66
2023/02/13 11:11:36;;;;;;;15.50;14.00;;;;;;;4.62;100.00;99033.16;5068350;28;20236;-65
2023/02/13 11:14:09;;;;;;;16.63;15.03;;;;;;;4.71;100.00;99029.09;5034613;28;20669;-66
2023/02/13 11:16:43;;;;;;;17.03;15.43;;;;;;;4.83;100.00;99034.47;5040193;28;20574;-64
2023/02/13 11:19:20;;;;;;;16.67;15.07;;;;;;;5.12;100.00;99032.53;5066741;28;20289;-66
2023/02/13 11:21:53;;;;;;;15.40;13.90;;;;;;;5.09;100.00;99030.09;5060001;28;20310;-66
2023/02/13 11:24:23;;;;;;;15.10;13.60;;;;;;;4.99;100.00;99027.25;5074021;28;20226;-65
2023/02/13 11:26:53;;;;;;;15.97;14.27;;;;;;;4.62;100.00;99038.41;5066159;28;20194;-66
2023/02/13 11:29:24;;;;;;;15.97;13.63;;;;;;;4.84;100.00;99039.63;5031132;28;20214;-65
2023/02/13 11:32:02;;;;;;;16.17;14.57;;;;;;;4.86;100.00;99043.00;5051371;28;20218;-67
2023/02/13 11:34:33;;;;;;;15.10;13.70;;;;;;;5.27;100.00;99037.69;5043168;28;20450;-66
2023/02/13 11:37:19;;;;;;;16.10;14.50;;;;;;;5.40;100.00;99033.25;5065003;28;20198;-66
2023/02/13 11:39:48;;;;;;;14.93;13.53;;;;;;;5.42;100.00;99031.38;5023414;28;20704;-64
2023/02/13 11:42:24;;;;;;;15.53;13.93;;;;;;;5.37;100.00;99036.09;5065648;28;20294;-64
2023/02/13 11:44:53;;;;;;;16.30;14.77;;;;;;;5.03;100.00;99027.88;5017537;28;20514;-66
2023/02/13 11:47:37;;;;;;;15.63;14.13;;;;;;;5.21;100.00;99034.53;5045290;28;20199;-67
2023/02/13 11:50:20;;;;;;;15.90;14.13;;;;;;;5.36;100.00;99030.03;5039667;28;20414;-67
2023/02/13 11:52:55;;;;;;;16.13;14.43;;;;;;;5.32;100.00;99032.97;5059544;28;20299;-66
2023/02/13 11:55:29;;;;;;;13.97;12.77;;;;;;;5.44;99.66;99016.31;5046286;28;20471;-66
2023/02/13 11:57:59;;;;;;;14.67;13.37;;;;;;;5.52;97.31;99022.88;5063960;28;20723;-65
2023/02/13 12:00:32;;;;;;;15.30;13.80;;;;;;;5.59;98.40;99016.22;5019100;28;20214;-66
2023/02/13 12:03:00;;;;;;;15.20;13.83;;;;;;;5.54;97.50;99023.59;5045927;28;20777;-66
2023/02/13 12:05:29;;;;;;;15.57;13.83;;;;;;;5.70;97.32;99026.84;5063951;28;20255;-66
2023/02/13 12:07:59;;;;;;;18.53;16.53;;;;;;;5.68;97.70;99018.22;5062948;28;20591;-67
2023/02/13 12:10:29;;;;;;;15.43;13.83;;;;;;;5.60;97.80;99017.91;5066008;28;20276;-66
2023/02/13 12:12:58;;;;;;;15.67;14.27;;;;;;;5.52;98.01;99013.19;5064231;28;20586;-67
2023/02/13 12:15:27;;;;;;;16.30;14.67;;;;;;;5.50;97.88;99005.41;5018959;28;20361;-67
2023/02/13 12:18:03;;;;;;;16.00;14.47;;;;;;;5.75;98.56;99001.03;5045676;28;20224;-65
2023/02/13 12:20:38;;;;;;;14.77;13.27;;;;;;;5.93;97.60;99000.69;5042615;28;20293;-67